createdAt,value
2018-12-11T00:00:40.332Z,4.00
2018-12-11T00:03:12.117Z,4.10
2018-12-11T00:05:43.226Z,4.10
2018-12-11T00:08:12.299Z,4.10
2018-12-11T00:10:41.374Z,4.20
2018-12-11T00:13:10.407Z,4.30
2018-12-11T00:15:39.421Z,4.30
2018-12-11T00:18:08.773Z,4.20
2018-12-11T00:20:37.861Z,4.20
2018-12-11T00:23:06.900Z,4.30
2018-12-11T00:25:35.965Z,4.30
2018-12-11T00:28:05.256Z,4.30
2018-12-11T00:30:34.360Z,4.30
2018-12-11T00:33:03.395Z,4.20
2018-12-11T00:35:32.654Z,4.10
2018-12-11T00:38:01.661Z,4.10
2018-12-11T00:40:30.698Z,4.20
2018-12-11T00:42:59.710Z,4.10
2018-12-11T00:45:28.937Z,4.20
2018-12-11T00:47:57.999Z,4.10
2018-12-11T00:50:27.251Z,4.10
2018-12-11T00:52:56.532Z,4.20
2018-12-11T00:55:25.847Z,4.30
2018-12-11T00:57:54.916Z,4.30
2018-12-11T01:00:24.132Z,4.30
2018-12-11T01:02:53.154Z,4.20
2018-12-11T01:05:22.208Z,4.20
2018-12-11T01:07:51.553Z,4.20
2018-12-11T01:10:20.750Z,4.30
2018-12-11T01:12:50.358Z,4.40
2018-12-11T01:15:19.487Z,4.30
2018-12-11T01:17:48.666Z,4.30
2018-12-11T01:20:17.736Z,4.30
2018-12-11T01:22:47.306Z,4.20
2018-12-11T01:25:16.540Z,4.30
2018-12-11T01:27:45.557Z,4.30
2018-12-11T01:30:14.764Z,4.40
2018-12-11T01:32:43.847Z,4.30
2018-12-11T01:35:12.887Z,4.40
2018-12-11T01:37:42.286Z,4.40
2018-12-11T01:40:11.465Z,4.30
2018-12-11T01:42:40.592Z,4.30
2018-12-11T01:45:09.634Z,4.20
2018-12-11T01:47:38.714Z,4.20
2018-12-11T01:50:07.847Z,4.20
2018-12-11T01:52:36.998Z,4.20
2018-12-11T01:55:06.297Z,4.10
2018-12-11T01:57:35.504Z,4.10
2018-12-11T02:00:06.006Z,4.20
2018-12-11T02:02:36.709Z,4.30
2018-12-11T02:05:07.222Z,4.30
2018-12-11T02:07:36.242Z,4.30
2018-12-11T02:10:05.580Z,4.20
2018-12-11T02:12:34.716Z,4.30
2018-12-11T02:15:04.188Z,4.40
2018-12-11T02:17:33.384Z,4.30
2018-12-11T02:20:02.991Z,4.40
2018-12-11T02:22:32.096Z,4.30
2018-12-11T02:25:01.271Z,4.40
2018-12-11T02:27:31.825Z,4.30
2018-12-11T02:30:01.038Z,4.30
2018-12-11T02:32:30.199Z,4.20
2018-12-11T02:34:59.359Z,4.20
2018-12-11T02:37:28.383Z,4.20
2018-12-11T02:39:57.695Z,4.30
2018-12-11T02:42:27.018Z,4.20
2018-12-11T02:44:56.097Z,4.20
2018-12-11T02:47:25.139Z,4.30
2018-12-11T02:49:54.286Z,4.20
2018-12-11T02:52:24.265Z,4.20
2018-12-11T02:54:53.294Z,4.20
2018-12-11T02:57:22.315Z,4.30
2018-12-11T02:59:51.444Z,4.20
2018-12-11T03:02:20.477Z,4.30
2018-12-11T03:04:49.534Z,4.40
2018-12-11T03:07:18.532Z,4.30
2018-12-11T03:09:47.632Z,4.30
2018-12-11T03:12:17.069Z,4.30
2018-12-11T03:14:46.123Z,4.30
2018-12-11T03:17:15.163Z,4.20
2018-12-11T03:19:44.598Z,4.20
2018-12-11T03:22:13.786Z,4.20
2018-12-11T03:24:42.825Z,4.10
2018-12-11T03:27:11.900Z,4.20
2018-12-11T03:29:40.959Z,4.20
2018-12-11T03:32:10.045Z,4.20
2018-12-11T03:34:39.181Z,4.20
2018-12-11T03:37:08.191Z,4.20
2018-12-11T03:39:39.242Z,4.20
2018-12-11T03:42:08.552Z,4.20
2018-12-11T03:44:37.586Z,4.20
2018-12-11T03:47:06.645Z,4.30
2018-12-11T03:49:35.973Z,4.30
2018-12-11T03:52:05.002Z,4.20
2018-12-11T03:54:34.037Z,4.20
2018-12-11T03:57:03.267Z,4.10
2018-12-11T03:59:32.292Z,4.00
2018-12-11T04:02:01.656Z,4.00
2018-12-11T04:04:30.724Z,3.90
2018-12-11T04:06:59.804Z,3.90
2018-12-11T04:09:28.828Z,4.00
2018-12-11T04:11:58.187Z,4.00
2018-12-11T04:14:28.925Z,4.10
2018-12-11T04:16:57.958Z,4.10
2018-12-11T04:19:27.063Z,4.00
2018-12-11T04:21:56.118Z,4.10
2018-12-11T04:24:25.189Z,4.10
2018-12-11T04:26:56.313Z,4.20
2018-12-11T04:29:25.334Z,4.10
2018-12-11T04:31:54.396Z,4.20
2018-12-11T04:34:23.439Z,4.10
2018-12-11T04:36:52.479Z,4.10
2018-12-11T04:39:21.496Z,4.10
2018-12-11T04:41:50.560Z,4.30
2018-12-11T04:44:19.582Z,4.30
2018-12-11T04:46:48.942Z,4.40
2018-12-11T04:49:17.934Z,4.40
2018-12-11T04:51:47.006Z,4.30
2018-12-11T04:54:16.031Z,4.40
2018-12-11T04:56:45.096Z,4.50
2018-12-11T04:59:14.098Z,4.50
2018-12-11T05:01:43.211Z,4.40
2018-12-11T05:04:12.462Z,4.50
2018-12-11T05:06:41.519Z,4.50
2018-12-11T05:09:10.523Z,4.50
2018-12-11T05:11:39.556Z,4.40
2018-12-11T05:14:08.574Z,4.40
2018-12-11T05:16:37.652Z,4.40
2018-12-11T05:19:06.696Z,4.30
2018-12-11T05:21:35.700Z,4.30
2018-12-11T05:24:04.768Z,4.40
2018-12-11T05:26:33.816Z,4.40
2018-12-11T05:29:02.855Z,4.30
2018-12-11T05:31:31.968Z,4.30
2018-12-11T05:34:00.999Z,4.30
2018-12-11T05:36:30.072Z,4.30
2018-12-11T05:39:00.898Z,4.30
2018-12-11T05:41:31.935Z,4.30
2018-12-11T05:44:01.140Z,4.30
2018-12-11T05:46:30.439Z,4.30
2018-12-11T05:48:59.561Z,4.20
2018-12-11T05:51:28.605Z,4.20
2018-12-11T05:53:57.637Z,4.30
2018-12-11T05:56:26.674Z,4.30
2018-12-11T05:58:55.721Z,4.30
2018-12-11T06:01:24.803Z,4.20
2018-12-11T06:03:53.835Z,4.00
2018-12-11T06:06:24.738Z,3.90
2018-12-11T06:08:53.893Z,3.90
2018-12-11T06:11:23.333Z,3.80
2018-12-11T06:13:52.409Z,3.80
2018-12-11T06:16:21.699Z,3.70
2018-12-11T06:18:51.171Z,3.70
2018-12-11T06:21:20.270Z,3.70
2018-12-11T06:23:49.629Z,3.70
2018-12-11T06:26:18.683Z,3.70
2018-12-11T06:28:47.860Z,3.70
2018-12-11T06:31:16.884Z,3.70
2018-12-11T06:33:46.015Z,3.70
2018-12-11T06:36:15.034Z,3.80
2018-12-11T06:38:44.128Z,3.90
2018-12-11T06:41:13.349Z,4.00
2018-12-11T06:43:42.748Z,3.90
2018-12-11T06:46:11.764Z,4.00
2018-12-11T06:48:40.950Z,4.00
2018-12-11T06:51:10.084Z,4.10
2018-12-11T06:53:39.116Z,4.20
2018-12-11T06:56:08.138Z,4.20
2018-12-11T06:58:37.209Z,4.20
2018-12-11T07:01:06.237Z,4.20
2018-12-11T07:03:35.316Z,4.20
2018-12-11T07:06:10.841Z,4.30
2018-12-11T07:08:39.897Z,4.40
2018-12-11T07:11:10.059Z,4.30
2018-12-11T07:13:39.111Z,4.40
2018-12-11T07:16:08.235Z,4.40
2018-12-11T07:18:37.313Z,4.30
2018-12-11T07:21:06.743Z,4.40
2018-12-11T07:23:35.783Z,4.60
2018-12-11T07:26:04.860Z,4.50
2018-12-11T07:28:33.894Z,4.60
2018-12-11T08:34:37.206Z,5.10
2018-12-11T08:37:06.459Z,5.20
2018-12-11T08:39:35.559Z,5.20
2018-12-11T08:42:04.599Z,5.20
2018-12-11T08:44:33.619Z,5.30
2018-12-11T08:47:02.667Z,5.40
2018-12-11T08:49:31.701Z,5.40
2018-12-11T08:52:00.777Z,5.40
2018-12-11T08:54:31.431Z,5.30
2018-12-11T08:57:12.625Z,5.40
2018-12-11T08:59:41.711Z,5.50
2018-12-11T09:02:10.737Z,5.40
2018-12-11T09:04:41.343Z,5.50
2018-12-11T09:07:10.756Z,5.70
2018-12-11T09:09:40.041Z,5.80
2018-12-11T09:12:09.113Z,5.90
2018-12-11T09:14:38.409Z,5.90
2018-12-11T09:17:10.292Z,6.00
2018-12-11T09:19:38.854Z,6.10
2018-12-11T09:22:08.174Z,6.10
2018-12-11T09:24:37.431Z,6.10
2018-12-11T09:27:06.477Z,6.00
2018-12-11T09:29:35.579Z,6.10
2018-12-11T09:32:04.801Z,6.20
2018-12-11T09:34:34.995Z,6.30
2018-12-11T09:37:04.276Z,6.30
2018-12-11T09:39:33.343Z,6.40
2018-12-11T09:42:07.026Z,6.30
2018-12-11T09:44:33.687Z,6.20
2018-12-11T09:47:03.271Z,6.30
2018-12-11T09:49:32.389Z,6.20
2018-12-11T09:52:01.591Z,6.20
2018-12-11T09:54:30.681Z,5.90
2018-12-11T09:57:00.094Z,5.50
2018-12-11T09:59:29.185Z,5.60
2018-12-11T10:01:58.207Z,5.80
2018-12-11T10:04:27.337Z,5.80
2018-12-11T10:06:56.393Z,5.90
2018-12-11T10:09:25.468Z,5.80
2018-12-11T10:11:54.607Z,6.00
2018-12-11T10:14:23.707Z,6.10
2018-12-11T10:16:52.949Z,6.00
2018-12-11T10:19:22.065Z,6.00
2018-12-11T10:21:51.115Z,6.10
2018-12-11T10:24:22.493Z,6.30
2018-12-11T10:26:51.562Z,6.40
2018-12-11T10:29:20.814Z,6.30
2018-12-11T10:31:49.831Z,6.30
2018-12-11T10:34:18.930Z,6.30
2018-12-11T10:36:49.417Z,6.20
2018-12-11T10:39:18.658Z,6.30
2018-12-11T10:41:56.170Z,6.40
2018-12-11T10:44:25.761Z,6.30
2018-12-11T10:46:55.728Z,6.20
2018-12-11T10:49:27.732Z,6.30
2018-12-11T10:51:57.516Z,6.20
2018-12-11T10:54:27.339Z,6.30
2018-12-11T10:56:59.525Z,6.20
2018-12-11T10:59:28.558Z,6.40
2018-12-11T11:02:02.512Z,6.60
2018-12-11T11:04:31.724Z,6.70
2018-12-11T11:07:00.881Z,6.80
2018-12-11T11:09:29.958Z,6.90
2018-12-11T11:11:59.042Z,6.80
2018-12-11T11:14:28.405Z,6.60
2018-12-11T11:16:57.414Z,6.40
2018-12-11T11:19:26.586Z,6.40
2018-12-11T11:21:55.669Z,6.40
2018-12-11T11:24:24.708Z,6.50
2018-12-11T11:26:53.729Z,6.80
2018-12-11T11:29:22.747Z,6.90
2018-12-11T11:31:51.793Z,6.80
2018-12-11T11:34:20.839Z,6.70
2018-12-11T11:36:49.876Z,6.50
2018-12-11T11:39:19.033Z,6.50
2018-12-11T11:41:48.295Z,6.50
2018-12-11T11:44:17.602Z,6.50
2018-12-11T11:46:46.999Z,6.30
2018-12-11T11:49:16.613Z,6.20
2018-12-11T11:51:45.621Z,6.20
2018-12-11T11:54:14.856Z,6.30
2018-12-11T11:56:44.139Z,6.40
2018-12-11T11:59:13.404Z,6.60
2018-12-11T12:01:42.406Z,6.70
2018-12-11T12:04:11.498Z,6.70
2018-12-11T12:06:40.529Z,6.50
2018-12-11T12:09:09.655Z,6.50
2018-12-11T12:11:40.047Z,6.30
2018-12-11T12:14:09.178Z,6.50
2018-12-11T12:16:38.533Z,6.70
2018-12-11T12:19:07.875Z,6.60
2018-12-11T12:21:36.898Z,6.60
2018-12-11T12:24:06.658Z,6.70
2018-12-11T12:26:36.409Z,6.70
2018-12-11T12:29:05.579Z,6.70
2018-12-11T12:31:34.721Z,6.60
2018-12-11T12:34:03.906Z,6.60
2018-12-11T12:36:33.048Z,6.80
2018-12-11T12:39:02.145Z,6.80
2018-12-11T12:41:33.372Z,6.70
2018-12-11T12:44:02.706Z,6.70
2018-12-11T12:46:31.842Z,6.70
2018-12-11T12:49:01.023Z,6.50
2018-12-11T12:51:30.071Z,6.50
2018-12-11T12:53:59.200Z,6.50
2018-12-11T12:56:28.556Z,6.40
2018-12-11T12:58:57.882Z,6.30
2018-12-11T13:01:26.946Z,6.20
2018-12-11T13:03:57.022Z,6.30
2018-12-11T13:06:26.358Z,6.40
2018-12-11T13:08:55.564Z,6.30
2018-12-11T13:11:24.716Z,6.20
2018-12-11T13:13:53.974Z,6.30
2018-12-11T13:16:23.271Z,6.30
2018-12-11T13:18:52.348Z,6.40
2018-12-11T13:21:21.378Z,6.40
2018-12-11T13:23:50.438Z,6.30
2018-12-11T13:26:19.476Z,6.30
2018-12-11T13:28:48.560Z,6.30
2018-12-11T13:31:17.545Z,6.40
2018-12-11T13:33:46.591Z,6.40
2018-12-11T13:36:15.823Z,6.40
2018-12-11T13:38:44.965Z,6.30
2018-12-11T13:41:14.104Z,6.20
2018-12-11T13:43:44.346Z,6.10
2018-12-11T13:46:13.641Z,6.20
2018-12-11T13:48:42.893Z,6.10
2018-12-11T13:51:13.450Z,6.00
2018-12-11T13:53:42.475Z,6.00
2018-12-11T13:56:11.465Z,6.00
2018-12-11T13:58:40.548Z,6.10
2018-12-11T14:01:09.620Z,6.00
2018-12-11T14:03:38.790Z,6.00
2018-12-11T14:06:08.044Z,6.10
2018-12-11T14:08:38.347Z,5.80
2018-12-11T14:11:07.467Z,5.70
2018-12-11T14:13:36.561Z,5.60
2018-12-11T14:16:05.729Z,5.70
2018-12-11T14:18:37.552Z,5.80
2018-12-11T14:21:05.783Z,5.80
2018-12-11T14:23:34.885Z,5.70
2018-12-11T14:26:03.956Z,5.80
2018-12-11T14:28:32.969Z,5.70
2018-12-11T14:31:02.630Z,5.70
2018-12-11T14:33:31.673Z,5.50
2018-12-11T14:36:01.055Z,5.60
2018-12-11T14:38:30.095Z,5.60
2018-12-11T14:40:59.206Z,5.60
2018-12-11T14:43:28.448Z,5.70
2018-12-11T14:45:57.566Z,5.60
2018-12-11T14:48:26.556Z,5.60
2018-12-11T14:50:56.036Z,5.80
2018-12-11T14:53:25.187Z,5.80
2018-12-11T14:55:54.596Z,5.80
2018-12-11T14:58:23.701Z,5.80
2018-12-11T15:00:52.850Z,5.70
2018-12-11T15:03:22.191Z,5.80
2018-12-11T15:05:51.283Z,5.70
2018-12-11T15:08:20.770Z,5.80
2018-12-11T15:10:49.888Z,5.60
2018-12-11T15:13:19.684Z,5.40
2018-12-11T15:15:49.143Z,5.50
2018-12-11T15:18:18.218Z,5.60
2018-12-11T15:20:47.705Z,5.70
2018-12-11T15:23:16.854Z,5.70
2018-12-11T15:25:47.204Z,5.60
2018-12-11T15:28:22.872Z,5.70
2018-12-11T15:31:18.451Z,5.80
2018-12-11T15:33:47.596Z,5.80
2018-12-11T15:36:16.676Z,5.80
2018-12-11T15:38:46.004Z,5.70
2018-12-11T15:41:15.044Z,5.60
2018-12-11T15:43:44.256Z,5.70
2018-12-11T15:46:13.418Z,5.70
2018-12-11T15:48:42.678Z,5.70
2018-12-11T15:51:11.746Z,5.50
2018-12-11T15:53:40.852Z,5.30
2018-12-11T15:56:10.172Z,5.30
2018-12-11T15:58:39.192Z,5.30
2018-12-11T16:01:08.861Z,5.30
2018-12-11T16:03:38.038Z,5.30
2018-12-11T16:06:07.068Z,5.00
2018-12-11T16:08:36.114Z,4.80
2018-12-11T16:11:05.143Z,4.70
2018-12-11T16:13:34.246Z,4.80
2018-12-11T16:16:03.332Z,4.70
2018-12-11T16:18:32.451Z,4.80
2018-12-11T16:21:01.551Z,5.00
2018-12-11T16:23:30.612Z,5.00
2018-12-11T16:25:59.680Z,5.00
2018-12-11T16:28:29.021Z,4.90
2018-12-11T16:30:58.314Z,5.00
2018-12-11T16:33:27.346Z,5.00
2018-12-11T16:35:56.415Z,4.90
2018-12-11T16:38:25.766Z,4.90
2018-12-11T16:40:55.110Z,4.80
2018-12-11T16:43:24.296Z,4.80
2018-12-11T16:45:53.368Z,4.80
2018-12-11T16:48:22.757Z,4.70
2018-12-11T16:50:51.927Z,4.60
2018-12-11T16:53:20.966Z,4.50
2018-12-11T16:55:50.290Z,4.70
2018-12-11T16:58:19.605Z,4.40
2018-12-11T17:00:48.634Z,4.40
2018-12-11T17:03:17.722Z,4.30
2018-12-11T17:05:46.882Z,4.30
2018-12-11T17:08:15.968Z,4.20
2018-12-11T17:10:46.008Z,4.20
2018-12-11T17:13:16.883Z,4.20
2018-12-11T17:15:47.776Z,4.20
2018-12-11T17:18:17.717Z,4.10
2018-12-11T17:20:47.598Z,4.00
2018-12-11T17:23:17.276Z,3.60
2018-12-11T17:25:47.440Z,3.50
2018-12-11T17:28:17.661Z,3.60
2018-12-11T17:30:46.903Z,3.50
2018-12-11T17:33:16.631Z,3.40
2018-12-11T17:35:46.167Z,3.30
2018-12-11T17:38:15.218Z,3.20
2018-12-11T17:40:44.327Z,3.20
2018-12-11T17:43:13.751Z,3.20
2018-12-11T17:45:42.845Z,3.40
2018-12-11T17:48:12.328Z,3.40
2018-12-11T17:50:41.669Z,3.40
2018-12-11T17:53:10.857Z,3.40
2018-12-11T17:55:40.365Z,3.50
2018-12-11T17:58:09.599Z,3.60
2018-12-11T18:00:38.794Z,3.60
2018-12-11T18:03:07.914Z,3.30
2018-12-11T18:05:36.976Z,3.30
2018-12-11T18:08:06.135Z,3.40
2018-12-11T18:10:35.304Z,3.50
2018-12-11T18:13:04.425Z,3.60
2018-12-11T18:15:33.751Z,3.50
2018-12-11T18:18:02.862Z,3.30
2018-12-11T18:20:32.989Z,3.20
2018-12-11T18:23:02.393Z,3.30
2018-12-11T18:25:31.573Z,3.50
2018-12-11T18:28:00.897Z,3.50
2018-12-11T18:30:30.138Z,3.40
2018-12-11T18:32:59.602Z,3.40
2018-12-11T18:35:29.398Z,3.40
2018-12-11T18:37:58.660Z,3.40
2018-12-11T18:40:27.929Z,3.50
2018-12-11T18:42:57.159Z,3.40
2018-12-11T18:45:26.303Z,3.40
2018-12-11T18:47:55.561Z,3.30
2018-12-11T18:50:24.859Z,3.30
2018-12-11T18:52:54.497Z,3.40
2018-12-11T18:55:24.526Z,3.40
2018-12-11T18:57:53.801Z,3.50
2018-12-11T19:00:22.874Z,3.50
2018-12-11T19:02:52.250Z,3.60
2018-12-11T19:05:21.301Z,3.40
2018-12-11T19:07:51.946Z,3.60
2018-12-11T19:10:23.243Z,3.50
2018-12-11T19:12:52.374Z,3.60
2018-12-11T19:15:22.766Z,3.30
2018-12-11T19:17:51.871Z,3.60
2018-12-11T19:20:21.756Z,3.70
2018-12-11T19:22:52.161Z,3.80
2018-12-11T19:25:21.316Z,3.60
2018-12-11T19:27:50.712Z,3.30
2018-12-11T19:30:19.847Z,3.30
2018-12-11T19:32:52.185Z,3.40
2018-12-11T19:35:22.150Z,3.50
2018-12-11T19:37:54.890Z,3.40
2018-12-11T19:40:25.141Z,3.40
2018-12-11T19:42:54.866Z,3.40
2018-12-11T19:45:27.611Z,3.50
2018-12-11T19:47:59.562Z,3.50
2018-12-11T19:50:29.631Z,3.70
2018-12-11T19:53:00.247Z,3.90
2018-12-11T19:55:29.398Z,3.90
2018-12-11T19:57:59.838Z,3.70
2018-12-11T20:00:31.058Z,3.80
2018-12-11T20:03:00.234Z,3.70
2018-12-11T20:05:31.529Z,3.50
2018-12-11T20:08:00.717Z,3.40
2018-12-11T20:10:29.976Z,3.30
2018-12-11T20:12:58.993Z,3.30
2018-12-11T20:15:28.134Z,3.40
2018-12-11T20:17:57.242Z,3.50
2018-12-11T20:20:28.891Z,3.60
2018-12-11T20:22:57.999Z,3.40
2018-12-11T20:25:27.183Z,3.40
2018-12-11T20:27:56.720Z,3.40
2018-12-11T20:30:25.795Z,3.30
2018-12-11T20:32:54.874Z,3.50
2018-12-11T20:35:23.925Z,3.50
2018-12-11T20:37:53.001Z,3.50
2018-12-11T20:40:22.081Z,3.60
2018-12-11T20:42:51.142Z,3.70
2018-12-11T20:45:20.169Z,3.60
2018-12-11T20:47:49.420Z,3.60
2018-12-11T20:50:18.949Z,3.70
2018-12-11T20:52:48.949Z,3.60
2018-12-11T20:55:18.003Z,3.50
2018-12-11T20:57:47.177Z,3.30
2018-12-11T21:00:16.247Z,3.40
2018-12-11T21:02:45.522Z,3.40
2018-12-11T21:05:14.773Z,3.50
2018-12-11T21:07:44.088Z,3.50
2018-12-11T21:10:13.320Z,3.60
2018-12-11T21:12:42.503Z,3.50
2018-12-11T21:15:11.687Z,3.50
2018-12-11T21:17:40.949Z,3.50
2018-12-11T21:20:10.049Z,3.40
2018-12-11T21:22:39.276Z,3.40
2018-12-11T21:25:08.588Z,3.20
2018-12-11T21:27:37.622Z,3.30
2018-12-11T21:30:08.849Z,3.40
2018-12-11T21:32:37.967Z,3.40
2018-12-11T21:35:08.581Z,3.40
2018-12-11T21:37:37.616Z,3.10
2018-12-11T21:40:08.401Z,2.90
2018-12-11T21:42:37.705Z,3.00
2018-12-11T21:45:07.014Z,3.10
2018-12-11T21:47:36.065Z,3.10
2018-12-11T21:50:07.440Z,3.20
2018-12-11T21:52:36.611Z,3.10
2018-12-11T21:55:07.017Z,3.30
2018-12-11T21:57:36.167Z,3.40
2018-12-11T22:00:08.507Z,3.30
2018-12-11T22:02:37.781Z,3.30
2018-12-11T22:05:07.107Z,3.30
2018-12-11T22:07:36.141Z,3.40
2018-12-11T22:10:05.985Z,3.30
2018-12-11T22:12:35.383Z,3.40
2018-12-11T22:15:05.567Z,3.40
2018-12-11T22:17:34.642Z,3.30
2018-12-11T22:20:04.207Z,3.20
2018-12-11T22:22:33.463Z,3.30
2018-12-11T22:25:02.853Z,3.30
2018-12-11T22:27:31.905Z,3.30
2018-12-11T22:30:01.031Z,3.50
2018-12-11T22:32:30.499Z,3.50
2018-12-11T22:34:59.527Z,3.70
2018-12-11T22:37:28.620Z,3.60
2018-12-11T22:39:57.739Z,3.40
2018-12-11T22:42:27.049Z,3.20
2018-12-11T22:44:56.145Z,3.20
2018-12-11T22:47:25.605Z,3.30
2018-12-11T22:49:54.661Z,3.30
2018-12-11T22:52:23.899Z,3.30
2018-12-11T22:54:53.542Z,3.30
2018-12-11T22:57:23.619Z,3.20
2018-12-11T22:59:52.706Z,3.20
2018-12-11T23:02:21.868Z,3.00
2018-12-11T23:04:52.894Z,3.00
2018-12-11T23:07:22.406Z,3.10
2018-12-11T23:09:51.446Z,3.30
2018-12-11T23:12:20.508Z,3.20
2018-12-11T23:14:49.706Z,3.20
2018-12-11T23:17:19.158Z,3.10
2018-12-11T23:19:48.314Z,3.20
2018-12-11T23:22:17.346Z,3.30
2018-12-11T23:24:46.962Z,3.50
2018-12-11T23:27:16.181Z,3.60
2018-12-11T23:29:45.342Z,3.60
2018-12-11T23:32:14.350Z,3.40
2018-12-11T23:34:43.489Z,3.40
2018-12-11T23:37:12.541Z,3.20
2018-12-11T23:39:41.648Z,3.40
2018-12-11T23:42:10.845Z,3.50
2018-12-11T23:44:39.996Z,3.70
2018-12-11T23:47:09.045Z,3.70
2018-12-11T23:49:38.091Z,3.70
2018-12-11T23:52:07.161Z,3.80
2018-12-11T23:54:36.166Z,3.90
2018-12-11T23:57:05.262Z,3.60
2018-12-11T23:59:34.284Z,3.50
